Jacksonville, FL (32099)

3:57 PM EDT on May 28, 2017 (GMT -0400)
⛅Edgewood, BinaryBully Technology Services | | Change Station

Elev 62 ft 30.32 °N, 81.74 °W | Updated 5 seconds ago

Partly Cloudy
Partly Cloudy
93.2 °F
Feels Like 96 °F
N
0.4
Wind Variable Wind from SW
Gusts 2.5 mph

Today
High -- | Low -- °F
--% Chance of Precip.
Yesterday
High -- | Low -- °F
Precip. -- in
Pressure 29.96 in
Visibility 10.0 miles
Clouds Scattered Clouds 6000 ft
Scattered Clouds 25000 ft
Heat Index 96 °F
Dew Point 65 °F
Humidity 40%
Rainfall 0.00 in
Snow Depth Not available.
6:26 AM 8:22 PM
Waxing Crescent, 13% visible
METAR KNIP 281953Z 24013G19KT 10SM SCT060 SCT250 34/19 A2997 RMK AO2 SLP143 T03440189
Pressure 29.96 in
Visibility 10.0 miles
Clouds Scattered Clouds 6000 ft
Scattered Clouds 25000 ft
Heat Index 96 °F
Dew Point 65 °F
Humidity 40%
Rainfall 0.00 in
Snow Depth Not available.
6:26 AM 8:22 PM
Waxing Crescent, 13% visible
METAR KNIP 281953Z 24013G19KT 10SM SCT060 SCT250 34/19 A2997 RMK AO2 SLP143 T03440189

Get Severe Weather Alerts

Thanks for signing up!

Be on the lookout for a verification email in your inbox.

You'll start receiving the daily forecast at 6 AM.

×

10-Day Weather Forecast

Almanac

Astronomy

May. 28, 2017 Rise Set
Actual Time
Civil Twilight
Nautical Twilight
Astronomical Twilight
Moon
Length of Visible Light
Length of Day
Tomorrow will be .
, % of the Moon is Illuminated

Today's Extremes

State Highs State Lows

Community

WunderPhotos

Category 6

Welcome to Category 6. This is the collective home for Weather Underground's featured writeups by Dr. Jeff Masters (right), Bob Henson (left), Chris Burt, and other regular contributors.

Nearby

Air Quality

  Air Quality AQ Index Pollutant
Not available.

Snow Depth

Station Depth Elevation

Earthquake Activity

City Distance Mag. Time & Date
Minimum magnitude displayed is 2.5.

Coastal Water Temperatures

Place Temperature

Stations

Nearby Weather Stations

Station Location Temp. Windchill Dew Point Humidity Wind Precip. Elev Updated Type
                   

Watches & Warnings

There are currently no watches in effect.